sensor_id;sensor_type;location;lat;lon;timestamp;P1;durP1;ratioP1;P2;durP2;ratioP2
6251;SDS011;3159;52.414;9.784;2023-03-01T00:01:38;15.23;;;9.00;;
6251;SDS011;3159;52.414;9.784;2023-03-01T00:04:05;11.93;;;9.67;;
6251;SDS011;3159;52.414;9.784;2023-03-01T00:06:32;12.50;;;9.30;;
6251;SDS011;3159;52.414;9.784;2023-03-01T00:08:58;16.03;;;9.77;;
6251;SDS011;3159;52.414;9.784;2023-03-01T00:11:26;12.47;;;8.57;;
6251;SDS011;3159;52.414;9.784;2023-03-01T00:13:55;13.00;;;10.03;;
6251;SDS011;3159;52.414;9.784;2023-03-01T00:16:24;15.03;;;9.13;;
6251;SDS011;3159;52.414;9.784;2023-03-01T00:18:54;12.83;;;9.10;;
6251;SDS011;3159;52.414;9.784;2023-03-01T00:21:21;14.23;;;9.27;;
6251;SDS011;3159;52.414;9.784;2023-03-01T00:23:49;11.57;;;8.90;;
6251;SDS011;3159;52.414;9.784;2023-03-01T00:26:17;13.47;;;9.00;;
6251;SDS011;3159;52.414;9.784;2023-03-01T00:28:45;10.87;;;8.53;;
6251;SDS011;3159;52.414;9.784;2023-03-01T00:31:14;13.00;;;8.97;;
6251;SDS011;3159;52.414;9.784;2023-03-01T00:33:43;14.50;;;9.13;;
6251;SDS011;3159;52.414;9.784;2023-03-01T00:36:12;11.37;;;8.67;;
6251;SDS011;3159;52.414;9.784;2023-03-01T00:38:41;10.40;;;8.80;;
6251;SDS011;3159;52.414;9.784;2023-03-01T00:41:10;13.03;;;9.00;;
6251;SDS011;3159;52.414;9.784;2023-03-01T00:43:40;15.90;;;9.73;;
6251;SDS011;3159;52.414;9.784;2023-03-01T00:46:08;15.07;;;9.70;;
6251;SDS011;3159;52.414;9.784;2023-03-01T00:48:36;11.03;;;8.60;;
6251;SDS011;3159;52.414;9.784;2023-03-01T00:51:04;13.67;;;9.27;;
6251;SDS011;3159;52.414;9.784;2023-03-01T00:53:33;12.27;;;8.87;;
6251;SDS011;3159;52.414;9.784;2023-03-01T00:56:00;12.70;;;9.50;;
6251;SDS011;3159;52.414;9.784;2023-03-01T00:58:27;13.03;;;9.07;;
6251;SDS011;3159;52.414;9.784;2023-03-01T01:00:54;13.63;;;9.77;;
6251;SDS011;3159;52.414;9.784;2023-03-01T01:03:21;12.33;;;8.63;;
6251;SDS011;3159;52.414;9.784;2023-03-01T01:05:49;11.47;;;8.77;;
6251;SDS011;3159;52.414;9.784;2023-03-01T01:08:16;12.13;;;8.20;;
6251;SDS011;3159;52.414;9.784;2023-03-01T01:10:44;13.03;;;9.50;;
6251;SDS011;3159;52.414;9.784;2023-03-01T01:13:12;12.30;;;9.37;;
6251;SDS011;3159;52.414;9.784;2023-03-01T01:15:39;14.50;;;9.90;;
6251;SDS011;3159;52.414;9.784;2023-03-01T01:18:06;14.60;;;9.63;;
6251;SDS011;3159;52.414;9.784;2023-03-01T01:20:34;13.20;;;9.30;;
6251;SDS011;3159;52.414;9.784;2023-03-01T01:23:02;12.30;;;9.27;;
6251;SDS011;3159;52.414;9.784;2023-03-01T01:25:33;13.57;;;9.30;;
6251;SDS011;3159;52.414;9.784;2023-03-01T01:28:02;14.30;;;8.57;;
6251;SDS011;3159;52.414;9.784;2023-03-01T01:30:29;14.93;;;9.03;;
6251;SDS011;3159;52.414;9.784;2023-03-01T01:32:56;15.60;;;9.07;;
6251;SDS011;3159;52.414;9.784;2023-03-01T01:35:23;12.07;;;8.37;;
6251;SDS011;3159;52.414;9.784;2023-03-01T01:37:49;13.23;;;8.83;;
6251;SDS011;3159;52.414;9.784;2023-03-01T01:40:16;12.43;;;8.90;;
6251;SDS011;3159;52.414;9.784;2023-03-01T01:42:43;13.27;;;8.57;;
6251;SDS011;3159;52.414;9.784;2023-03-01T01:45:25;11.07;;;8.70;;
6251;SDS011;3159;52.414;9.784;2023-03-01T01:48:00;13.37;;;8.50;;
6251;SDS011;3159;52.414;9.784;2023-03-01T01:50:30;12.53;;;8.87;;
6251;SDS011;3159;52.414;9.784;2023-03-01T01:53:03;12.20;;;8.83;;
6251;SDS011;3159;52.414;9.784;2023-03-01T01:55:33;16.50;;;9.73;;
6251;SDS011;3159;52.414;9.784;2023-03-01T01:58:02;11.87;;;8.87;;
6251;SDS011;3159;52.414;9.784;2023-03-01T02:00:34;15.70;;;9.70;;
6251;SDS011;3159;52.414;9.784;2023-03-01T02:03:03;11.60;;;8.73;;
6251;SDS011;3159;52.414;9.784;2023-03-01T02:05:35;13.03;;;9.10;;
6251;SDS011;3159;52.414;9.784;2023-03-01T02:08:08;11.80;;;8.73;;
6251;SDS011;3159;52.414;9.784;2023-03-01T02:10:37;13.37;;;9.10;;
6251;SDS011;3159;52.414;9.784;2023-03-01T02:13:04;12.97;;;8.67;;
6251;SDS011;3159;52.414;9.784;2023-03-01T02:15:34;11.97;;;7.87;;
6251;SDS011;3159;52.414;9.784;2023-03-01T02:18:02;14.70;;;9.23;;
6251;SDS011;3159;52.414;9.784;2023-03-01T02:20:32;14.07;;;9.37;;
6251;SDS011;3159;52.414;9.784;2023-03-01T02:23:02;13.47;;;9.17;;
6251;SDS011;3159;52.414;9.784;2023-03-01T02:25:33;12.20;;;9.20;;
6251;SDS011;3159;52.414;9.784;2023-03-01T02:28:08;16.10;;;9.70;;
6251;SDS011;3159;52.414;9.784;2023-03-01T02:30:46;14.33;;;9.10;;
6251;SDS011;3159;52.414;9.784;2023-03-01T02:33:30;11.70;;;9.00;;
6251;SDS011;3159;52.414;9.784;2023-03-01T02:36:01;12.33;;;8.90;;
6251;SDS011;3159;52.414;9.784;2023-03-01T02:38:31;12.20;;;8.77;;
6251;SDS011;3159;52.414;9.784;2023-03-01T02:40:58;13.77;;;8.63;;
6251;SDS011;3159;52.414;9.784;2023-03-01T02:43:28;14.10;;;9.50;;
6251;SDS011;3159;52.414;9.784;2023-03-01T02:45:58;13.70;;;9.13;;
6251;SDS011;3159;52.414;9.784;2023-03-01T02:48:38;13.60;;;8.90;;
6251;SDS011;3159;52.414;9.784;2023-03-01T02:51:07;13.17;;;8.70;;
6251;SDS011;3159;52.414;9.784;2023-03-01T02:53:45;11.23;;;8.83;;
6251;SDS011;3159;52.414;9.784;2023-03-01T02:56:22;11.77;;;8.90;;
6251;SDS011;3159;52.414;9.784;2023-03-01T02:58:50;11.80;;;8.40;;
6251;SDS011;3159;52.414;9.784;2023-03-01T03:01:18;12.57;;;8.53;;
6251;SDS011;3159;52.414;9.784;2023-03-01T03:03:45;11.17;;;8.17;;
6251;SDS011;3159;52.414;9.784;2023-03-01T03:06:12;10.87;;;8.60;;
6251;SDS011;3159;52.414;9.784;2023-03-01T03:08:39;11.80;;;8.53;;
6251;SDS011;3159;52.414;9.784;2023-03-01T03:11:06;11.63;;;8.50;;
6251;SDS011;3159;52.414;9.784;2023-03-01T03:13:33;12.70;;;8.80;;
6251;SDS011;3159;52.414;9.784;2023-03-01T03:16:01;11.27;;;8.40;;
6251;SDS011;3159;52.414;9.784;2023-03-01T03:18:29;13.90;;;9.20;;
6251;SDS011;3159;52.414;9.784;2023-03-01T03:20:56;10.07;;;8.37;;
6251;SDS011;3159;52.414;9.784;2023-03-01T03:23:23;15.33;;;9.03;;
6251;SDS011;3159;52.414;9.784;2023-03-01T03:25:50;13.87;;;9.13;;
6251;SDS011;3159;52.414;9.784;2023-03-01T03:28:17;14.37;;;8.37;;
6251;SDS011;3159;52.414;9.784;2023-03-01T03:30:44;10.83;;;8.23;;
6251;SDS011;3159;52.414;9.784;2023-03-01T03:33:13;15.97;;;8.87;;
6251;SDS011;3159;52.414;9.784;2023-03-01T03:35:41;12.03;;;8.43;;
6251;SDS011;3159;52.414;9.784;2023-03-01T03:38:10;14.07;;;8.93;;
6251;SDS011;3159;52.414;9.784;2023-03-01T03:40:42;10.90;;;8.90;;
6251;SDS011;3159;52.414;9.784;2023-03-01T03:43:11;11.87;;;8.53;;
6251;SDS011;3159;52.414;9.784;2023-03-01T03:45:39;15.00;;;9.03;;
6251;SDS011;3159;52.414;9.784;2023-03-01T03:48:08;11.00;;;8.67;;
6251;SDS011;3159;52.414;9.784;2023-03-01T03:50:37;11.47;;;8.00;;
6251;SDS011;3159;52.414;9.784;2023-03-01T03:53:05;11.60;;;8.60;;
6251;SDS011;3159;52.414;9.784;2023-03-01T03:55:33;11.70;;;9.03;;
6251;SDS011;3159;52.414;9.784;2023-03-01T03:58:04;10.30;;;8.67;;
6251;SDS011;3159;52.414;9.784;2023-03-01T04:00:33;13.30;;;8.27;;
6251;SDS011;3159;52.414;9.784;2023-03-01T04:03:01;13.73;;;8.60;;
6251;SDS011;3159;52.414;9.784;2023-03-01T04:05:28;10.93;;;8.27;;
6251;SDS011;3159;52.414;9.784;2023-03-01T04:07:56;11.93;;;8.47;;
6251;SDS011;3159;52.414;9.784;2023-03-01T04:10:32;14.20;;;8.90;;
6251;SDS011;3159;52.414;9.784;2023-03-01T04:13:00;12.67;;;8.30;;
6251;SDS011;3159;52.414;9.784;2023-03-01T04:15:26;12.40;;;8.63;;
6251;SDS011;3159;52.414;9.784;2023-03-01T04:17:54;13.87;;;8.93;;
6251;SDS011;3159;52.414;9.784;2023-03-01T04:20:22;13.00;;;8.83;;
6251;SDS011;3159;52.414;9.784;2023-03-01T04:22:51;12.10;;;8.03;;
6251;SDS011;3159;52.414;9.784;2023-03-01T04:25:20;11.77;;;8.03;;
6251;SDS011;3159;52.414;9.784;2023-03-01T04:27:46;13.17;;;8.63;;
6251;SDS011;3159;52.414;9.784;2023-03-01T04:30:13;10.57;;;8.17;;
6251;SDS011;3159;52.414;9.784;2023-03-01T04:32:40;13.83;;;8.20;;
6251;SDS011;3159;52.414;9.784;2023-03-01T04:35:07;11.87;;;8.53;;
6251;SDS011;3159;52.414;9.784;2023-03-01T04:37:34;14.50;;;8.97;;
6251;SDS011;3159;52.414;9.784;2023-03-01T04:40:01;13.27;;;7.97;;
6251;SDS011;3159;52.414;9.784;2023-03-01T04:42:38;12.13;;;8.27;;
6251;SDS011;3159;52.414;9.784;2023-03-01T04:45:06;12.77;;;8.60;;
6251;SDS011;3159;52.414;9.784;2023-03-01T04:47:38;11.73;;;8.00;;
6251;SDS011;3159;52.414;9.784;2023-03-01T04:50:05;12.43;;;8.10;;
6251;SDS011;3159;52.414;9.784;2023-03-01T04:52:33;10.47;;;8.33;;
6251;SDS011;3159;52.414;9.784;2023-03-01T04:55:00;14.97;;;8.80;;
6251;SDS011;3159;52.414;9.784;2023-03-01T04:57:27;13.20;;;8.03;;
6251;SDS011;3159;52.414;9.784;2023-03-01T04:59:55;9.80;;;8.03;;
6251;SDS011;3159;52.414;9.784;2023-03-01T05:02:22;10.97;;;8.10;;
6251;SDS011;3159;52.414;9.784;2023-03-01T05:04:48;11.90;;;7.87;;
6251;SDS011;3159;52.414;9.784;2023-03-01T05:07:15;14.83;;;8.10;;
6251;SDS011;3159;52.414;9.784;2023-03-01T05:09:44;14.23;;;7.40;;
6251;SDS011;3159;52.414;9.784;2023-03-01T05:12:11;11.50;;;8.27;;
6251;SDS011;3159;52.414;9.784;2023-03-01T05:14:38;11.77;;;8.23;;
6251;SDS011;3159;52.414;9.784;2023-03-01T05:17:06;12.70;;;8.77;;
6251;SDS011;3159;52.414;9.784;2023-03-01T05:19:34;11.00;;;7.93;;
6251;SDS011;3159;52.414;9.784;2023-03-01T05:22:01;10.57;;;8.13;;
6251;SDS011;3159;52.414;9.784;2023-03-01T05:24:29;9.93;;;8.40;;
6251;SDS011;3159;52.414;9.784;2023-03-01T05:26:56;13.30;;;9.07;;
6251;SDS011;3159;52.414;9.784;2023-03-01T05:29:24;13.27;;;9.17;;
6251;SDS011;3159;52.414;9.784;2023-03-01T05:31:52;13.77;;;9.30;;
6251;SDS011;3159;52.414;9.784;2023-03-01T05:34:24;14.47;;;9.50;;
6251;SDS011;3159;52.414;9.784;2023-03-01T05:36:51;14.03;;;9.80;;
6251;SDS011;3159;52.414;9.784;2023-03-01T05:39:19;14.43;;;10.13;;
6251;SDS011;3159;52.414;9.784;2023-03-01T05:41:47;15.93;;;9.27;;
6251;SDS011;3159;52.414;9.784;2023-03-01T05:44:14;13.80;;;9.47;;
6251;SDS011;3159;52.414;9.784;2023-03-01T05:46:41;11.83;;;9.60;;
6251;SDS011;3159;52.414;9.784;2023-03-01T05:49:08;11.27;;;9.03;;
6251;SDS011;3159;52.414;9.784;2023-03-01T05:51:36;14.53;;;8.90;;
6251;SDS011;3159;52.414;9.784;2023-03-01T05:54:03;10.73;;;8.03;;
6251;SDS011;3159;52.414;9.784;2023-03-01T05:56:31;10.73;;;8.03;;
6251;SDS011;3159;52.414;9.784;2023-03-01T05:58:59;10.57;;;8.33;;
6251;SDS011;3159;52.414;9.784;2023-03-01T06:01:26;10.70;;;7.83;;
6251;SDS011;3159;52.414;9.784;2023-03-01T06:03:53;12.77;;;8.37;;
6251;SDS011;3159;52.414;9.784;2023-03-01T06:06:19;16.93;;;8.13;;
6251;SDS011;3159;52.414;9.784;2023-03-01T06:08:48;12.77;;;8.27;;
6251;SDS011;3159;52.414;9.784;2023-03-01T06:11:14;10.00;;;7.70;;
6251;SDS011;3159;52.414;9.784;2023-03-01T06:13:41;13.37;;;8.63;;
6251;SDS011;3159;52.414;9.784;2023-03-01T06:16:08;14.03;;;8.53;;
6251;SDS011;3159;52.414;9.784;2023-03-01T06:18:36;11.60;;;8.23;;
6251;SDS011;3159;52.414;9.784;2023-03-01T06:21:04;13.10;;;8.67;;
6251;SDS011;3159;52.414;9.784;2023-03-01T06:23:31;15.83;;;8.93;;
6251;SDS011;3159;52.414;9.784;2023-03-01T06:26:00;12.97;;;8.57;;
6251;SDS011;3159;52.414;9.784;2023-03-01T06:28:30;13.10;;;8.73;;
6251;SDS011;3159;52.414;9.784;2023-03-01T06:30:57;16.47;;;8.80;;
6251;SDS011;3159;52.414;9.784;2023-03-01T06:33:24;15.47;;;9.23;;
6251;SDS011;3159;52.414;9.784;2023-03-01T06:35:51;11.90;;;8.70;;
6251;SDS011;3159;52.414;9.784;2023-03-01T06:38:20;15.83;;;9.70;;
6251;SDS011;3159;52.414;9.784;2023-03-01T06:40:50;14.50;;;9.47;;
6251;SDS011;3159;52.414;9.784;2023-03-01T06:43:19;16.07;;;9.40;;
6251;SDS011;3159;52.414;9.784;2023-03-01T06:45:46;16.10;;;9.20;;
6251;SDS011;3159;52.414;9.784;2023-03-01T06:48:12;13.33;;;8.87;;
6251;SDS011;3159;52.414;9.784;2023-03-01T06:50:39;17.73;;;8.70;;
6251;SDS011;3159;52.414;9.784;2023-03-01T06:53:06;20.93;;;9.57;;
6251;SDS011;3159;52.414;9.784;2023-03-01T06:55:33;16.80;;;10.23;;
6251;SDS011;3159;52.414;9.784;2023-03-01T06:58:00;14.87;;;9.17;;
6251;SDS011;3159;52.414;9.784;2023-03-01T07:00:30;12.97;;;9.20;;
6251;SDS011;3159;52.414;9.784;2023-03-01T07:02:58;13.37;;;8.53;;
6251;SDS011;3159;52.414;9.784;2023-03-01T07:05:26;14.47;;;8.83;;
6251;SDS011;3159;52.414;9.784;2023-03-01T07:07:54;12.63;;;8.07;;
6251;SDS011;3159;52.414;9.784;2023-03-01T07:10:21;15.27;;;9.10;;
6251;SDS011;3159;52.414;9.784;2023-03-01T07:12:48;16.27;;;9.20;;
6251;SDS011;3159;52.414;9.784;2023-03-01T07:15:15;16.20;;;10.33;;
6251;SDS011;3159;52.414;9.784;2023-03-01T07:17:43;18.07;;;11.13;;
6251;SDS011;3159;52.414;9.784;2023-03-01T07:20:12;16.20;;;10.47;;
6251;SDS011;3159;52.414;9.784;2023-03-01T07:22:40;15.77;;;10.57;;
6251;SDS011;3159;52.414;9.784;2023-03-01T07:25:08;12.20;;;9.63;;
6251;SDS011;3159;52.414;9.784;2023-03-01T07:27:35;15.10;;;9.63;;
6251;SDS011;3159;52.414;9.784;2023-03-01T07:30:02;13.20;;;9.87;;
6251;SDS011;3159;52.414;9.784;2023-03-01T07:32:30;16.73;;;10.30;;
6251;SDS011;3159;52.414;9.784;2023-03-01T07:34:58;14.90;;;9.77;;
6251;SDS011;3159;52.414;9.784;2023-03-01T07:37:25;15.17;;;9.97;;
6251;SDS011;3159;52.414;9.784;2023-03-01T07:39:51;12.50;;;9.27;;
6251;SDS011;3159;52.414;9.784;2023-03-01T07:42:18;16.83;;;9.33;;
6251;SDS011;3159;52.414;9.784;2023-03-01T07:44:45;12.67;;;9.33;;
6251;SDS011;3159;52.414;9.784;2023-03-01T07:47:12;16.57;;;9.83;;
6251;SDS011;3159;52.414;9.784;2023-03-01T07:49:39;15.30;;;10.20;;
6251;SDS011;3159;52.414;9.784;2023-03-01T07:52:07;19.80;;;10.70;;
6251;SDS011;3159;52.414;9.784;2023-03-01T07:54:36;13.83;;;9.60;;
6251;SDS011;3159;52.414;9.784;2023-03-01T07:57:02;14.10;;;10.07;;
6251;SDS011;3159;52.414;9.784;2023-03-01T07:59:29;14.10;;;9.47;;
6251;SDS011;3159;52.414;9.784;2023-03-01T08:01:56;12.17;;;9.60;;
6251;SDS011;3159;52.414;9.784;2023-03-01T08:04:23;12.83;;;8.97;;
6251;SDS011;3159;52.414;9.784;2023-03-01T08:06:51;13.47;;;9.17;;
6251;SDS011;3159;52.414;9.784;2023-03-01T08:09:20;11.43;;;9.07;;
6251;SDS011;3159;52.414;9.784;2023-03-01T08:11:47;14.60;;;9.63;;
6251;SDS011;3159;52.414;9.784;2023-03-01T08:14:13;13.20;;;8.33;;
6251;SDS011;3159;52.414;9.784;2023-03-01T08:16:40;14.00;;;9.33;;
6251;SDS011;3159;52.414;9.784;2023-03-01T08:19:07;14.20;;;9.30;;
6251;SDS011;3159;52.414;9.784;2023-03-01T08:21:35;14.30;;;9.03;;
6251;SDS011;3159;52.414;9.784;2023-03-01T08:24:03;16.90;;;8.27;;
6251;SDS011;3159;52.414;9.784;2023-03-01T08:26:32;11.43;;;8.03;;
6251;SDS011;3159;52.414;9.784;2023-03-01T08:28:59;14.53;;;8.53;;
6251;SDS011;3159;52.414;9.784;2023-03-01T08:31:27;11.53;;;7.53;;
6251;SDS011;3159;52.414;9.784;2023-03-01T08:33:56;10.00;;;7.13;;
6251;SDS011;3159;52.414;9.784;2023-03-01T08:36:25;9.33;;;6.37;;
6251;SDS011;3159;52.414;9.784;2023-03-01T08:38:52;10.50;;;6.33;;
6251;SDS011;3159;52.414;9.784;2023-03-01T08:41:20;9.30;;;6.97;;
6251;SDS011;3159;52.414;9.784;2023-03-01T08:43:48;10.53;;;7.23;;
6251;SDS011;3159;52.414;9.784;2023-03-01T08:46:15;12.33;;;7.27;;
6251;SDS011;3159;52.414;9.784;2023-03-01T08:48:42;11.37;;;7.63;;
6251;SDS011;3159;52.414;9.784;2023-03-01T08:51:10;9.90;;;7.30;;
6251;SDS011;3159;52.414;9.784;2023-03-01T08:53:37;11.80;;;7.80;;
6251;SDS011;3159;52.414;9.784;2023-03-01T08:56:05;11.77;;;7.67;;
6251;SDS011;3159;52.414;9.784;2023-03-01T08:58:32;10.17;;;6.53;;
6251;SDS011;3159;52.414;9.784;2023-03-01T09:01:00;9.77;;;6.57;;
6251;SDS011;3159;52.414;9.784;2023-03-01T09:03:32;10.23;;;6.23;;
6251;SDS011;3159;52.414;9.784;2023-03-01T09:05:59;10.47;;;6.57;;
6251;SDS011;3159;52.414;9.784;2023-03-01T09:08:27;6.43;;;5.07;;
6251;SDS011;3159;52.414;9.784;2023-03-01T09:10:54;7.37;;;5.43;;
6251;SDS011;3159;52.414;9.784;2023-03-01T09:13:20;7.97;;;4.77;;
6251;SDS011;3159;52.414;9.784;2023-03-01T09:15:48;8.40;;;5.10;;
6251;SDS011;3159;52.414;9.784;2023-03-01T09:18:16;7.63;;;5.27;;
6251;SDS011;3159;52.414;9.784;2023-03-01T09:20:43;7.53;;;4.80;;
6251;SDS011;3159;52.414;9.784;2023-03-01T09:23:10;5.90;;;4.50;;
6251;SDS011;3159;52.414;9.784;2023-03-01T09:25:37;7.40;;;4.83;;
6251;SDS011;3159;52.414;9.784;2023-03-01T09:28:04;6.57;;;4.50;;
6251;SDS011;3159;52.414;9.784;2023-03-01T09:30:30;6.33;;;4.67;;
6251;SDS011;3159;52.414;9.784;2023-03-01T09:32:58;9.80;;;4.73;;
6251;SDS011;3159;52.414;9.784;2023-03-01T09:35:26;5.67;;;4.93;;
6251;SDS011;3159;52.414;9.784;2023-03-01T09:37:53;8.77;;;4.23;;
6251;SDS011;3159;52.414;9.784;2023-03-01T09:40:20;7.70;;;4.47;;
6251;SDS011;3159;52.414;9.784;2023-03-01T09:42:51;6.40;;;4.87;;
6251;SDS011;3159;52.414;9.784;2023-03-01T09:45:25;6.53;;;4.53;;
6251;SDS011;3159;52.414;9.784;2023-03-01T09:47:54;7.90;;;4.27;;
6251;SDS011;3159;52.414;9.784;2023-03-01T09:50:22;8.23;;;5.13;;
6251;SDS011;3159;52.414;9.784;2023-03-01T09:52:53;5.73;;;4.47;;
6251;SDS011;3159;52.414;9.784;2023-03-01T09:55:26;7.97;;;5.20;;
6251;SDS011;3159;52.414;9.784;2023-03-01T09:57:58;7.23;;;5.17;;
6251;SDS011;3159;52.414;9.784;2023-03-01T10:00:35;7.73;;;5.00;;
6251;SDS011;3159;52.414;9.784;2023-03-01T10:03:16;7.80;;;4.50;;
6251;SDS011;3159;52.414;9.784;2023-03-01T10:05:52;6.63;;;5.00;;
6251;SDS011;3159;52.414;9.784;2023-03-01T10:08:31;6.10;;;4.93;;
6251;SDS011;3159;52.414;9.784;2023-03-01T10:11:04;7.37;;;5.40;;
6251;SDS011;3159;52.414;9.784;2023-03-01T10:13:42;7.93;;;5.77;;
6251;SDS011;3159;52.414;9.784;2023-03-01T10:16:19;6.90;;;4.87;;
6251;SDS011;3159;52.414;9.784;2023-03-01T10:18:52;8.07;;;5.60;;
6251;SDS011;3159;52.414;9.784;2023-03-01T10:21:21;6.70;;;5.10;;
6251;SDS011;3159;52.414;9.784;2023-03-01T10:23:50;8.37;;;4.57;;
6251;SDS011;3159;52.414;9.784;2023-03-01T10:26:29;6.83;;;5.03;;
6251;SDS011;3159;52.414;9.784;2023-03-01T10:29:05;6.40;;;4.47;;
6251;SDS011;3159;52.414;9.784;2023-03-01T10:31:36;6.97;;;4.07;;
6251;SDS011;3159;52.414;9.784;2023-03-01T10:34:08;5.47;;;3.93;;
6251;SDS011;3159;52.414;9.784;2023-03-01T10:36:37;4.77;;;3.77;;
6251;SDS011;3159;52.414;9.784;2023-03-01T10:39:12;5.83;;;3.80;;
6251;SDS011;3159;52.414;9.784;2023-03-01T10:41:57;7.17;;;4.20;;
6251;SDS011;3159;52.414;9.784;2023-03-01T10:44:35;6.20;;;4.07;;
6251;SDS011;3159;52.414;9.784;2023-03-01T10:47:13;5.33;;;3.97;;
6251;SDS011;3159;52.414;9.784;2023-03-01T10:49:55;6.03;;;3.80;;
6251;SDS011;3159;52.414;9.784;2023-03-01T10:52:25;5.83;;;4.07;;
6251;SDS011;3159;52.414;9.784;2023-03-01T10:54:56;7.90;;;4.33;;
6251;SDS011;3159;52.414;9.784;2023-03-01T10:57:27;7.00;;;4.47;;
6251;SDS011;3159;52.414;9.784;2023-03-01T11:00:10;5.63;;;3.73;;
6251;SDS011;3159;52.414;9.784;2023-03-01T11:02:42;5.90;;;3.93;;
6251;SDS011;3159;52.414;9.784;2023-03-01T11:05:18;5.03;;;3.20;;
6251;SDS011;3159;52.414;9.784;2023-03-01T11:07:49;7.53;;;3.57;;
6251;SDS011;3159;52.414;9.784;2023-03-01T11:10:19;6.13;;;3.83;;
6251;SDS011;3159;52.414;9.784;2023-03-01T11:12:48;5.83;;;3.37;;
6251;SDS011;3159;52.414;9.784;2023-03-01T11:15:23;4.70;;;3.30;;
6251;SDS011;3159;52.414;9.784;2023-03-01T11:17:52;5.07;;;3.60;;
6251;SDS011;3159;52.414;9.784;2023-03-01T11:20:23;4.27;;;3.60;;
6251;SDS011;3159;52.414;9.784;2023-03-01T11:22:53;5.47;;;3.77;;
6251;SDS011;3159;52.414;9.784;2023-03-01T11:25:25;4.27;;;3.40;;
6251;SDS011;3159;52.414;9.784;2023-03-01T11:27:53;5.53;;;3.33;;
6251;SDS011;3159;52.414;9.784;2023-03-01T11:30:23;4.17;;;3.27;;
6251;SDS011;3159;52.414;9.784;2023-03-01T11:32:57;5.17;;;3.60;;
6251;SDS011;3159;52.414;9.784;2023-03-01T11:35:31;6.80;;;3.67;;
6251;SDS011;3159;52.414;9.784;2023-03-01T11:38:03;4.77;;;3.33;;
6251;SDS011;3159;52.414;9.784;2023-03-01T11:40:43;3.90;;;2.97;;
6251;SDS011;3159;52.414;9.784;2023-03-01T11:43:15;4.13;;;3.07;;
6251;SDS011;3159;52.414;9.784;2023-03-01T11:45:53;5.83;;;3.40;;
6251;SDS011;3159;52.414;9.784;2023-03-01T11:48:44;4.17;;;2.67;;
6251;SDS011;3159;52.414;9.784;2023-03-01T11:51:21;5.13;;;3.33;;
6251;SDS011;3159;52.414;9.784;2023-03-01T11:53:56;4.40;;;2.70;;
6251;SDS011;3159;52.414;9.784;2023-03-01T11:56:34;5.47;;;2.90;;
6251;SDS011;3159;52.414;9.784;2023-03-01T11:59:08;4.07;;;2.90;;
6251;SDS011;3159;52.414;9.784;2023-03-01T12:01:58;5.43;;;2.90;;
6251;SDS011;3159;52.414;9.784;2023-03-01T12:04:42;3.37;;;2.60;;
6251;SDS011;3159;52.414;9.784;2023-03-01T12:07:36;3.07;;;2.40;;
6251;SDS011;3159;52.414;9.784;2023-03-01T12:10:18;4.70;;;3.00;;
6251;SDS011;3159;52.414;9.784;2023-03-01T12:12:54;4.67;;;3.43;;
6251;SDS011;3159;52.414;9.784;2023-03-01T12:15:56;4.07;;;2.90;;
6251;SDS011;3159;52.414;9.784;2023-03-01T12:18:39;4.80;;;2.97;;
6251;SDS011;3159;52.414;9.784;2023-03-01T12:21:22;3.67;;;2.50;;
6251;SDS011;3159;52.414;9.784;2023-03-01T12:24:07;5.00;;;3.10;;
6251;SDS011;3159;52.414;9.784;2023-03-01T12:26:56;4.90;;;3.20;;
6251;SDS011;3159;52.414;9.784;2023-03-01T12:29:39;4.87;;;2.60;;
6251;SDS011;3159;52.414;9.784;2023-03-01T12:32:17;4.00;;;2.70;;
6251;SDS011;3159;52.414;9.784;2023-03-01T12:34:54;5.43;;;3.07;;
6251;SDS011;3159;52.414;9.784;2023-03-01T12:37:33;6.07;;;3.30;;
6251;SDS011;3159;52.414;9.784;2023-03-01T12:40:20;5.33;;;3.37;;
6251;SDS011;3159;52.414;9.784;2023-03-01T12:43:15;3.53;;;2.77;;
6251;SDS011;3159;52.414;9.784;2023-03-01T12:45:53;5.97;;;3.40;;
6251;SDS011;3159;52.414;9.784;2023-03-01T12:48:32;5.20;;;3.20;;
6251;SDS011;3159;52.414;9.784;2023-03-01T12:51:07;6.03;;;3.33;;
6251;SDS011;3159;52.414;9.784;2023-03-01T12:53:39;4.20;;;3.40;;
6251;SDS011;3159;52.414;9.784;2023-03-01T12:56:09;5.43;;;3.13;;
6251;SDS011;3159;52.414;9.784;2023-03-01T12:58:39;4.67;;;3.33;;
6251;SDS011;3159;52.414;9.784;2023-03-01T13:01:29;5.37;;;3.70;;
6251;SDS011;3159;52.414;9.784;2023-03-01T13:04:06;6.73;;;3.57;;
6251;SDS011;3159;52.414;9.784;2023-03-01T13:06:41;4.93;;;3.53;;
6251;SDS011;3159;52.414;9.784;2023-03-01T13:09:19;7.07;;;3.70;;
6251;SDS011;3159;52.414;9.784;2023-03-01T13:11:51;4.57;;;3.53;;
6251;SDS011;3159;52.414;9.784;2023-03-01T13:17:32;5.00;;;3.50;;
6251;SDS011;3159;52.414;9.784;2023-03-01T13:20:11;6.33;;;3.37;;
6251;SDS011;3159;52.414;9.784;2023-03-01T13:22:40;7.40;;;3.80;;
6251;SDS011;3159;52.414;9.784;2023-03-01T13:25:14;5.30;;;4.03;;
6251;SDS011;3159;52.414;9.784;2023-03-01T13:27:44;4.63;;;3.70;;
6251;SDS011;3159;52.414;9.784;2023-03-01T13:36:05;6.07;;;4.17;;
6251;SDS011;3159;52.414;9.784;2023-03-01T13:38:37;4.83;;;2.97;;
6251;SDS011;3159;52.414;9.784;2023-03-01T13:41:06;4.77;;;3.63;;
6251;SDS011;3159;52.414;9.784;2023-03-01T13:43:34;6.03;;;3.63;;
6251;SDS011;3159;52.414;9.784;2023-03-01T13:46:02;5.07;;;3.43;;
6251;SDS011;3159;52.414;9.784;2023-03-01T13:48:37;4.17;;;3.03;;
6251;SDS011;3159;52.414;9.784;2023-03-01T13:51:06;5.33;;;3.17;;
6251;SDS011;3159;52.414;9.784;2023-03-01T13:53:36;4.23;;;3.53;;
6251;SDS011;3159;52.414;9.784;2023-03-01T13:56:08;3.90;;;3.13;;
6251;SDS011;3159;52.414;9.784;2023-03-01T14:01:21;4.33;;;3.27;;
6251;SDS011;3159;52.414;9.784;2023-03-01T14:03:51;4.23;;;3.23;;
6251;SDS011;3159;52.414;9.784;2023-03-01T14:06:20;4.13;;;3.07;;
6251;SDS011;3159;52.414;9.784;2023-03-01T14:08:48;3.80;;;3.07;;
6251;SDS011;3159;52.414;9.784;2023-03-01T14:11:21;3.97;;;2.97;;
6251;SDS011;3159;52.414;9.784;2023-03-01T14:17:07;4.40;;;3.13;;
6251;SDS011;3159;52.414;9.784;2023-03-01T14:19:46;3.23;;;2.80;;
6251;SDS011;3159;52.414;9.784;2023-03-01T14:22:16;4.00;;;2.87;;
6251;SDS011;3159;52.414;9.784;2023-03-01T14:24:46;2.70;;;2.35;;
6251;SDS011;3159;52.414;9.784;2023-03-01T14:27:15;5.80;;;2.70;;
6251;SDS011;3159;52.414;9.784;2023-03-01T14:29:42;3.77;;;2.30;;
6251;SDS011;3159;52.414;9.784;2023-03-01T14:32:12;3.43;;;2.43;;
6251;SDS011;3159;52.414;9.784;2023-03-01T14:34:46;3.50;;;2.40;;
6251;SDS011;3159;52.414;9.784;2023-03-01T14:37:19;3.60;;;2.70;;
6251;SDS011;3159;52.414;9.784;2023-03-01T14:39:47;3.90;;;2.83;;
6251;SDS011;3159;52.414;9.784;2023-03-01T14:42:14;3.87;;;3.27;;
6251;SDS011;3159;52.414;9.784;2023-03-01T14:44:42;5.47;;;3.60;;
6251;SDS011;3159;52.414;9.784;2023-03-01T14:47:12;6.90;;;3.30;;
6251;SDS011;3159;52.414;9.784;2023-03-01T14:49:41;4.87;;;3.00;;
6251;SDS011;3159;52.414;9.784;2023-03-01T14:52:16;7.40;;;4.17;;
6251;SDS011;3159;52.414;9.784;2023-03-01T14:54:46;7.33;;;4.40;;
6251;SDS011;3159;52.414;9.784;2023-03-01T14:57:17;3.63;;;3.10;;
6251;SDS011;3159;52.414;9.784;2023-03-01T14:59:47;4.27;;;3.10;;
6251;SDS011;3159;52.414;9.784;2023-03-01T15:02:18;4.03;;;3.37;;
6251;SDS011;3159;52.414;9.784;2023-03-01T15:04:49;6.67;;;4.07;;
6251;SDS011;3159;52.414;9.784;2023-03-01T15:07:19;4.37;;;2.90;;
6251;SDS011;3159;52.414;9.784;2023-03-01T15:09:46;5.10;;;3.60;;
6251;SDS011;3159;52.414;9.784;2023-03-01T15:15:26;3.80;;;2.90;;
6251;SDS011;3159;52.414;9.784;2023-03-01T15:18:13;4.37;;;3.50;;
6251;SDS011;3159;52.414;9.784;2023-03-01T15:20:42;5.17;;;3.87;;
6251;SDS011;3159;52.414;9.784;2023-03-01T15:23:18;3.73;;;3.20;;
6251;SDS011;3159;52.414;9.784;2023-03-01T15:25:47;3.73;;;3.10;;
6251;SDS011;3159;52.414;9.784;2023-03-01T15:28:21;4.93;;;3.40;;
6251;SDS011;3159;52.414;9.784;2023-03-01T15:30:57;5.10;;;3.20;;
6251;SDS011;3159;52.414;9.784;2023-03-01T15:33:28;5.30;;;3.50;;
6251;SDS011;3159;52.414;9.784;2023-03-01T15:35:58;6.03;;;3.60;;
6251;SDS011;3159;52.414;9.784;2023-03-01T15:38:28;7.50;;;3.90;;
6251;SDS011;3159;52.414;9.784;2023-03-01T15:40:58;4.97;;;3.43;;
6251;SDS011;3159;52.414;9.784;2023-03-01T15:43:37;5.33;;;3.77;;
6251;SDS011;3159;52.414;9.784;2023-03-01T15:46:11;4.30;;;3.33;;